createdAt,value
2018-10-19T00:01:45.402Z,142.40
2018-10-19T00:04:28.202Z,142.63
2018-10-19T00:07:11.265Z,130.60
2018-10-19T00:09:54.160Z,138.27
2018-10-19T00:12:38.073Z,136.87
2018-10-19T00:15:20.221Z,136.93
2018-10-19T00:18:03.221Z,140.33
2018-10-19T00:20:46.974Z,142.00
2018-10-19T00:23:26.541Z,140.33
2018-10-19T00:26:04.619Z,153.90
2018-10-19T00:28:42.763Z,150.57
2018-10-19T00:31:24.081Z,152.00
2018-10-19T00:34:07.240Z,159.20
2018-10-19T00:36:44.396Z,153.93
2018-10-19T00:39:21.476Z,150.93
2018-10-19T00:41:59.517Z,158.07
2018-10-19T00:44:37.921Z,146.03
2018-10-19T00:47:16.292Z,151.93
2018-10-19T00:49:54.539Z,159.67
2018-10-19T00:52:32.742Z,157.80
2018-10-19T00:55:11.663Z,155.13
2018-10-19T00:57:54.026Z,156.10
2018-10-19T01:00:37.184Z,153.10
2018-10-19T01:03:19.758Z,147.70
2018-10-19T01:05:58.335Z,153.03
2018-10-19T01:08:41.760Z,163.80
2018-10-19T01:11:23.938Z,150.60
2018-10-19T01:14:05.420Z,150.87
2018-10-19T01:16:48.402Z,160.33
2018-10-19T01:19:31.201Z,148.83
2018-10-19T01:22:15.117Z,154.13
2018-10-19T01:24:57.538Z,159.03
2018-10-19T01:27:39.998Z,143.90
2018-10-19T01:30:22.183Z,144.83
2018-10-19T01:33:03.929Z,145.70
2018-10-19T01:35:46.242Z,163.70
2018-10-19T01:38:29.257Z,180.13
2018-10-19T01:41:12.332Z,168.27
2018-10-19T01:43:55.164Z,165.90
2018-10-19T01:46:38.138Z,166.30
2018-10-19T01:49:22.155Z,169.47
2018-10-19T01:52:05.601Z,171.23
2018-10-19T01:54:48.943Z,178.30
2018-10-19T01:57:27.614Z,172.83
2018-10-19T02:00:06.738Z,179.70
2018-10-19T02:02:44.946Z,179.87
2018-10-19T02:05:23.779Z,177.60
2018-10-19T02:08:04.122Z,177.80
2018-10-19T02:10:47.898Z,176.27
2018-10-19T02:13:32.199Z,182.27
2018-10-19T02:16:14.980Z,178.07
2018-10-19T02:18:57.460Z,173.90
2018-10-19T02:21:40.036Z,182.70
2018-10-19T02:24:22.839Z,181.83
2018-10-19T02:27:05.522Z,175.83
2018-10-19T02:29:48.160Z,178.50
2018-10-19T02:32:31.517Z,176.80
2018-10-19T02:35:14.738Z,173.10
2018-10-19T02:38:10.601Z,177.60
2018-10-19T02:40:48.421Z,168.03
2018-10-19T02:43:26.483Z,178.17
2018-10-19T02:46:08.860Z,182.60
2018-10-19T02:48:47.920Z,181.43
2018-10-19T02:51:31.186Z,179.53
2018-10-19T02:54:15.197Z,172.13
2018-10-19T02:56:51.883Z,170.77
2018-10-19T02:59:27.816Z,167.17
2018-10-19T03:02:07.262Z,164.53
2018-10-19T03:04:43.445Z,164.00
2018-10-19T03:07:20.082Z,167.10
2018-10-19T03:09:57.916Z,159.60
2018-10-19T03:12:35.383Z,149.03
2018-10-19T03:15:22.367Z,168.27
2018-10-19T03:18:05.919Z,157.03
2018-10-19T03:20:42.359Z,162.57
2018-10-19T03:23:23.522Z,163.80
2018-10-19T03:26:12.306Z,165.23
2018-10-19T03:28:54.954Z,147.63
2018-10-19T03:31:34.800Z,142.60
2018-10-19T03:34:15.416Z,152.50
2018-10-19T03:36:53.967Z,129.37
2018-10-19T03:39:32.657Z,145.23
2018-10-19T03:42:16.018Z,125.20
2018-10-19T03:44:58.342Z,122.83
2018-10-19T03:47:42.402Z,130.43
2018-10-19T03:50:19.321Z,146.23
2018-10-19T03:53:02.913Z,139.53
2018-10-19T03:55:45.886Z,145.97
2018-10-19T03:58:29.381Z,134.73
2018-10-19T04:01:10.698Z,140.97
2018-10-19T04:03:50.520Z,140.43
2018-10-19T04:06:29.799Z,141.10
2018-10-19T04:09:10.560Z,131.20
2018-10-19T04:11:47.115Z,132.17
2018-10-19T04:14:25.878Z,134.53
2018-10-19T04:17:08.247Z,133.30
2018-10-19T04:19:45.690Z,126.67
2018-10-19T04:22:26.144Z,127.37
2018-10-19T04:25:06.241Z,126.67
2018-10-19T04:27:49.761Z,124.80
2018-10-19T04:30:32.385Z,129.30
2018-10-19T04:33:17.165Z,109.80
2018-10-19T04:35:55.899Z,110.30
2018-10-19T04:38:40.003Z,117.33
2018-10-19T04:41:18.813Z,108.67
2018-10-19T04:43:59.981Z,112.80
2018-10-19T04:46:45.483Z,109.37
2018-10-19T04:49:28.638Z,117.20
2018-10-19T04:52:08.580Z,121.83
2018-10-19T04:54:48.318Z,122.13
2018-10-19T04:57:26.203Z,120.33
2018-10-19T05:00:03.299Z,119.10
2018-10-19T05:02:42.280Z,116.77
2018-10-19T05:05:21.121Z,107.67
2018-10-19T05:07:57.573Z,106.90
2018-10-19T05:10:35.716Z,112.10
2018-10-19T05:13:18.561Z,99.37
2018-10-19T05:16:01.407Z,98.30
2018-10-19T05:18:39.496Z,79.73
2018-10-19T05:21:17.280Z,75.90
2018-10-19T05:23:55.700Z,77.37
2018-10-19T05:26:34.936Z,76.87
2018-10-19T05:29:20.964Z,74.70
2018-10-19T05:31:57.159Z,74.37
2018-10-19T05:34:36.900Z,75.77
2018-10-19T05:37:14.142Z,75.73
2018-10-19T05:39:56.297Z,89.67
2018-10-19T05:42:35.555Z,87.10
2018-10-19T05:45:16.736Z,91.30
2018-10-19T05:48:06.620Z,96.87
2018-10-19T05:50:45.863Z,121.20
2018-10-19T05:53:25.477Z,179.83
2018-10-19T05:56:05.126Z,115.07
2018-10-19T05:58:44.941Z,122.80
2018-10-19T06:01:24.316Z,174.33
2018-10-19T06:04:05.878Z,663.67
2018-10-19T06:06:46.126Z,338.23
2018-10-19T06:09:27.263Z,461.70
2018-10-19T06:12:06.466Z,601.20
2018-10-19T06:14:47.531Z,431.83
2018-10-19T06:17:25.800Z,342.10
2018-10-19T06:20:05.272Z,218.10
2018-10-19T06:22:42.343Z,229.40
2018-10-19T06:25:21.520Z,173.93
2018-10-19T06:28:03.084Z,256.53
2018-10-19T06:30:48.738Z,124.37
2018-10-19T06:33:27.718Z,136.93
2018-10-19T06:36:07.141Z,450.67
2018-10-19T06:38:48.435Z,526.03
2018-10-19T06:41:31.219Z,186.20
2018-10-19T06:44:15.092Z,355.90
2018-10-19T06:46:54.315Z,342.73
2018-10-19T06:49:34.458Z,698.63
2018-10-19T06:52:12.379Z,302.93
2018-10-19T06:54:53.578Z,247.50
2018-10-19T06:57:32.081Z,271.70
2018-10-19T07:00:09.344Z,398.03
2018-10-19T07:02:45.074Z,426.97
2018-10-19T07:05:21.914Z,366.70
2018-10-19T07:07:58.963Z,501.50
2018-10-19T07:10:38.781Z,291.60
2018-10-19T07:13:19.902Z,287.60
2018-10-19T07:15:58.240Z,627.80
2018-10-19T07:18:37.138Z,148.27
2018-10-19T07:21:16.403Z,169.30
2018-10-19T07:23:56.817Z,123.60
2018-10-19T07:26:37.604Z,117.43
2018-10-19T07:29:17.283Z,207.50
2018-10-19T07:31:56.197Z,151.00
2018-10-19T07:34:35.821Z,117.47
2018-10-19T07:37:14.618Z,124.53
2018-10-19T07:39:54.557Z,168.87
2018-10-19T07:42:31.365Z,143.50
2018-10-19T07:45:11.864Z,166.90
2018-10-19T07:47:56.827Z,150.53
2018-10-19T07:50:39.157Z,263.43
2018-10-19T07:53:16.279Z,286.23
2018-10-19T07:55:55.467Z,295.73
2018-10-19T07:58:38.143Z,297.07
2018-10-19T08:01:14.741Z,297.77
2018-10-19T08:03:58.097Z,262.60
2018-10-19T08:06:35.057Z,231.30
2018-10-19T08:09:16.298Z,227.90
2018-10-19T08:11:53.625Z,240.10
2018-10-19T08:14:30.799Z,202.10
2018-10-19T08:17:09.383Z,139.93
2018-10-19T08:19:46.093Z,94.47
2018-10-19T08:22:25.336Z,78.03
2018-10-19T08:25:05.818Z,81.43
2018-10-19T08:27:43.379Z,75.23
2018-10-19T08:30:23.216Z,78.43
2018-10-19T08:33:04.304Z,84.03
2018-10-19T08:35:42.124Z,85.77
2018-10-19T08:38:21.636Z,81.93
2018-10-19T08:40:58.636Z,77.03
2018-10-19T08:43:39.439Z,85.83
2018-10-19T08:46:21.058Z,86.50
2018-10-19T08:49:10.808Z,89.43
2018-10-19T08:51:51.947Z,80.77
2018-10-19T08:54:29.593Z,77.80
2018-10-19T08:57:08.395Z,100.03
2018-10-19T08:59:46.816Z,80.27
2018-10-19T09:02:28.784Z,88.27
2018-10-19T09:05:06.502Z,95.87
2018-10-19T09:07:43.154Z,90.67
2018-10-19T09:10:23.058Z,104.83
2018-10-19T09:13:02.360Z,81.57
2018-10-19T09:15:40.425Z,80.33
2018-10-19T09:18:16.970Z,135.20
2018-10-19T09:20:55.311Z,116.47
2018-10-19T09:23:32.256Z,461.20
2018-10-19T09:26:09.284Z,238.33
2018-10-19T09:28:47.893Z,84.40
2018-10-19T09:31:27.844Z,72.37
2018-10-19T09:34:10.306Z,76.97
2018-10-19T09:36:50.955Z,132.53
2018-10-19T09:39:31.755Z,210.33
2018-10-19T09:42:11.086Z,189.93
2018-10-19T09:44:50.848Z,68.87
2018-10-19T09:47:34.383Z,139.57
2018-10-19T09:50:13.741Z,77.20
2018-10-19T09:52:52.065Z,111.70
2018-10-19T09:55:32.687Z,148.80
2018-10-19T09:58:09.658Z,381.13
2018-10-19T10:00:55.915Z,478.03
2018-10-19T10:03:32.597Z,271.90
2018-10-19T10:06:13.336Z,172.13
2018-10-19T10:08:49.899Z,90.43
2018-10-19T10:11:27.522Z,80.23
2018-10-19T10:14:06.164Z,74.70
2018-10-19T10:16:44.802Z,75.30
2018-10-19T10:19:30.404Z,73.87
2018-10-19T10:22:13.755Z,71.93
2018-10-19T10:24:52.447Z,66.70
2018-10-19T10:27:37.316Z,76.90
2018-10-19T10:30:16.302Z,75.20
2018-10-19T10:32:57.182Z,70.80
2018-10-19T10:35:39.678Z,89.50
2018-10-19T10:38:23.296Z,94.13
2018-10-19T10:41:05.760Z,111.43
2018-10-19T10:43:45.720Z,258.00
2018-10-19T10:46:26.002Z,152.20
2018-10-19T10:49:05.385Z,70.30
2018-10-19T10:51:46.455Z,102.83
2018-10-19T10:54:25.122Z,71.77
2018-10-19T10:57:07.121Z,66.57
2018-10-19T10:59:44.402Z,66.90
2018-10-19T11:02:23.397Z,90.40
2018-10-19T11:05:02.839Z,101.90
2018-10-19T11:07:41.221Z,66.43
2018-10-19T11:10:17.758Z,60.60
2018-10-19T11:12:57.566Z,57.70
2018-10-19T11:15:34.324Z,61.90
2018-10-19T11:18:11.579Z,59.50
2018-10-19T11:20:49.341Z,58.87
2018-10-19T11:23:27.799Z,61.97
2018-10-19T11:26:07.744Z,60.23
2018-10-19T11:28:44.260Z,61.30
2018-10-19T11:31:22.454Z,60.20
2018-10-19T11:34:00.031Z,68.60
2018-10-19T11:36:40.607Z,75.57
2018-10-19T11:39:20.441Z,88.40
2018-10-19T11:42:03.183Z,67.63
2018-10-19T11:44:44.921Z,83.80
2018-10-19T11:47:28.822Z,70.27
2018-10-19T11:50:07.999Z,65.73
2018-10-19T11:52:46.463Z,55.47
2018-10-19T11:55:26.140Z,52.30
2018-10-19T11:58:06.175Z,54.63
2018-10-19T12:00:43.807Z,56.67
2018-10-19T12:03:20.477Z,58.20
2018-10-19T12:06:00.353Z,58.10
2018-10-19T12:08:42.909Z,57.33
2018-10-19T12:11:25.522Z,56.90
2018-10-19T12:14:06.237Z,54.23
2018-10-19T12:16:43.202Z,55.50
2018-10-19T12:19:26.221Z,53.80
2018-10-19T12:22:06.218Z,65.57
2018-10-19T12:24:46.421Z,54.37
2018-10-19T12:27:29.113Z,53.00
2018-10-19T12:30:09.999Z,54.33
2018-10-19T12:32:50.360Z,53.83
2018-10-19T12:35:28.166Z,54.30
2018-10-19T12:38:12.084Z,51.90
2018-10-19T12:40:50.739Z,53.30
2018-10-19T12:43:29.716Z,55.20
2018-10-19T12:46:30.980Z,55.40
2018-10-19T12:49:09.260Z,49.30
2018-10-19T12:51:46.841Z,53.80
2018-10-19T12:54:24.032Z,54.80
2018-10-19T12:57:02.751Z,48.73
2018-10-19T12:59:41.295Z,50.93
2018-10-19T13:02:19.441Z,49.90
2018-10-19T13:04:56.144Z,51.60
2018-10-19T13:07:34.464Z,51.63
2018-10-19T13:10:12.305Z,49.80
2018-10-19T13:12:49.996Z,51.50
2018-10-19T13:15:27.736Z,58.63
2018-10-19T13:18:06.279Z,51.33
2018-10-19T13:20:47.396Z,60.20
2018-10-19T13:23:28.200Z,49.70
2018-10-19T13:26:05.719Z,50.40
2018-10-19T13:28:43.979Z,51.73
2018-10-19T13:31:21.016Z,50.00
2018-10-19T13:33:58.197Z,50.13
2018-10-19T13:36:35.528Z,48.00
2018-10-19T13:39:16.412Z,54.90
2018-10-19T13:41:54.438Z,51.77
2018-10-19T13:44:33.319Z,60.43
2018-10-19T13:47:10.236Z,65.37
2018-10-19T13:49:48.941Z,49.23
2018-10-19T13:52:27.635Z,49.63
2018-10-19T13:55:07.936Z,57.70
2018-10-19T13:57:50.221Z,59.23
2018-10-19T14:00:28.300Z,52.47
2018-10-19T14:03:05.821Z,47.47
2018-10-19T14:05:47.862Z,45.17
2018-10-19T14:08:25.255Z,47.00
2018-10-19T14:11:04.191Z,48.47
2018-10-19T14:13:46.017Z,46.27
2018-10-19T14:16:24.908Z,47.60
2018-10-19T14:19:04.825Z,49.40
2018-10-19T14:21:47.500Z,47.47
2018-10-19T14:24:27.461Z,52.07
2018-10-19T14:27:10.098Z,47.33
2018-10-19T14:29:47.147Z,49.30
2018-10-19T14:32:30.382Z,51.40
2018-10-19T14:35:08.156Z,50.50
2018-10-19T14:37:51.000Z,52.20
2018-10-19T14:40:31.861Z,51.20
2018-10-19T14:43:09.164Z,53.00
2018-10-19T14:45:48.160Z,57.70
2018-10-19T14:48:28.222Z,65.30
2018-10-19T14:51:10.203Z,73.40
2018-10-19T14:53:52.539Z,74.50
2018-10-19T14:56:30.918Z,66.90
2018-10-19T14:59:12.441Z,51.73
2018-10-19T15:01:54.615Z,49.90
2018-10-19T15:04:35.865Z,51.60
2018-10-19T15:07:13.419Z,57.67
2018-10-19T15:09:52.549Z,71.03
2018-10-19T15:12:33.063Z,66.57
2018-10-19T15:15:13.001Z,52.77
2018-10-19T15:18:02.100Z,50.63
2018-10-19T15:20:40.561Z,53.67
2018-10-19T15:23:19.705Z,62.53
2018-10-19T15:25:56.983Z,49.73
2018-10-19T15:28:35.779Z,53.97
2018-10-19T15:31:18.495Z,60.47
2018-10-19T15:33:55.459Z,57.37
2018-10-19T15:36:38.735Z,56.13
2018-10-19T15:39:22.046Z,66.60
2018-10-19T15:42:03.881Z,63.37
2018-10-19T15:44:41.458Z,60.13
2018-10-19T15:47:41.939Z,58.43
2018-10-19T15:50:21.281Z,58.90
2018-10-19T15:53:02.782Z,63.50
2018-10-19T15:55:39.020Z,62.30
2018-10-19T15:58:15.104Z,59.87
2018-10-19T16:00:51.957Z,54.17
2018-10-19T16:03:51.347Z,61.50
2018-10-19T16:06:33.492Z,53.43
2018-10-19T16:09:18.257Z,56.13
2018-10-19T16:11:57.461Z,59.73
2018-10-19T16:14:36.074Z,75.60
2018-10-19T19:08:06.313Z,82.43
2018-10-19T19:10:47.076Z,77.10
2018-10-19T19:13:32.337Z,78.23
2018-10-19T19:16:13.977Z,77.17
2018-10-19T19:18:56.353Z,80.83
2018-10-19T19:21:34.003Z,77.37
2018-10-19T19:24:18.639Z,75.47
2018-10-19T19:26:57.658Z,77.83
2018-10-19T19:29:37.360Z,79.77
2018-10-19T19:32:13.811Z,78.53
2018-10-19T19:34:54.117Z,78.13
2018-10-19T19:37:47.654Z,77.87
2018-10-19T19:40:24.670Z,79.67
2018-10-19T19:43:05.356Z,81.50
2018-10-19T19:45:43.996Z,93.30
2018-10-19T19:48:24.731Z,104.97
2018-10-19T19:51:01.857Z,107.03
2018-10-19T19:53:41.872Z,122.07
2018-10-19T19:56:22.504Z,107.03
2018-10-19T19:58:58.832Z,92.00
2018-10-19T20:01:38.553Z,94.93
2018-10-19T20:04:15.537Z,95.87
2018-10-19T20:06:55.096Z,93.90
2018-10-19T20:09:36.612Z,104.60
2018-10-19T20:12:18.414Z,99.40
2018-10-19T20:14:58.095Z,121.10
2018-10-19T20:17:39.853Z,159.30
2018-10-19T20:20:18.999Z,154.60
2018-10-19T20:22:59.360Z,133.17
2018-10-19T20:25:39.334Z,176.17
2018-10-19T20:28:20.513Z,188.10
2018-10-19T20:30:57.221Z,181.17
2018-10-19T20:33:35.938Z,181.00
2018-10-19T20:36:15.301Z,173.67
2018-10-19T20:38:51.732Z,153.33
2018-10-19T20:41:30.002Z,167.33
2018-10-19T20:44:10.852Z,163.13
2018-10-19T20:46:48.491Z,166.27
2018-10-19T20:49:27.096Z,167.80
2018-10-19T20:52:06.593Z,157.43
2018-10-19T20:54:44.814Z,143.20
2018-10-19T20:57:22.495Z,163.37
2018-10-19T21:00:02.257Z,160.03
2018-10-19T21:02:40.257Z,156.10
2018-10-19T21:05:19.512Z,151.67
2018-10-19T21:07:55.696Z,159.33
2018-10-19T21:10:40.035Z,159.17
2018-10-19T21:13:17.490Z,164.00
2018-10-19T21:15:55.211Z,148.27
2018-10-19T21:18:34.454Z,135.97
2018-10-19T21:21:13.663Z,143.57
2018-10-19T21:23:54.637Z,137.80
2018-10-19T21:26:33.790Z,136.83
2018-10-19T21:29:11.952Z,125.27
2018-10-19T21:31:49.812Z,132.07
2018-10-19T21:34:28.421Z,132.13
2018-10-19T21:37:08.395Z,121.27
2018-10-19T21:39:45.496Z,116.60
2018-10-19T21:42:22.818Z,114.80
2018-10-19T21:45:00.952Z,112.90
2018-10-19T21:47:36.770Z,99.90
2018-10-19T21:50:16.152Z,112.63
2018-10-19T21:52:56.976Z,116.13
2018-10-19T21:55:36.935Z,117.67
2018-10-19T21:58:14.696Z,108.87
2018-10-19T22:00:54.075Z,108.43
2018-10-19T22:03:32.017Z,104.97
2018-10-19T22:06:11.258Z,106.43
2018-10-19T22:08:50.856Z,105.30
2018-10-19T22:11:30.399Z,100.37
2018-10-19T22:14:10.032Z,88.97
2018-10-19T22:16:49.015Z,87.50
2018-10-19T22:19:27.272Z,79.07
2018-10-19T22:22:06.132Z,77.37
2018-10-19T22:24:45.942Z,73.80
2018-10-19T22:27:25.634Z,75.97
2018-10-19T22:30:05.097Z,76.23
2018-10-19T22:32:42.353Z,75.00
2018-10-19T22:35:21.995Z,80.77
2018-10-19T22:38:00.253Z,85.23
2018-10-19T22:40:38.514Z,96.10
2018-10-19T22:43:17.289Z,96.20
2018-10-19T22:45:57.501Z,100.37
2018-10-19T22:48:36.279Z,99.73
2018-10-19T22:51:14.559Z,100.83
2018-10-19T22:53:54.419Z,97.63
2018-10-19T22:56:31.970Z,94.30
2018-10-19T22:59:12.600Z,94.87
2018-10-19T23:01:51.490Z,100.23
2018-10-19T23:04:31.214Z,95.17
2018-10-19T23:07:07.497Z,88.37
2018-10-19T23:09:45.056Z,94.43
2018-10-19T23:12:23.354Z,93.27
2018-10-19T23:15:01.676Z,96.70
2018-10-19T23:17:40.782Z,102.37
2018-10-19T23:20:19.312Z,96.23
2018-10-19T23:22:56.597Z,91.87
2018-10-19T23:25:37.158Z,100.13
2018-10-19T23:28:15.673Z,99.10
2018-10-19T23:30:55.192Z,91.17
2018-10-19T23:33:33.637Z,93.13
2018-10-19T23:36:12.219Z,104.20
2018-10-19T23:38:51.537Z,101.83
2018-10-19T23:41:30.578Z,99.20
2018-10-19T23:44:10.619Z,97.90
2018-10-19T23:46:50.137Z,91.17
2018-10-19T23:49:29.796Z,93.87
2018-10-19T23:52:06.635Z,95.67
2018-10-19T23:54:45.776Z,99.30
2018-10-19T23:57:23.891Z,93.40
